Time;durP1;ratioP1;P1;durP2;ratioP2;P2;SDS_P1;SDS_P2;PMS_P1;PMS_P2;Temp;Humidity;BMP_temperature;BMP_pressure;BME280_temperature;BME280_humidity;BME280_pressure;Samples;Min_cycle;Max_cycle;Signal;HPM_P1;HPM_P2
2024/04/22 00:01:02;;;;;;;7.40;4.72;;;3.60;99.90;;;;;;5322641;26;20030;-79
2024/04/22 00:03:27;;;;;;;8.50;5.13;;;3.70;99.90;;;;;;5327810;26;20334;-77
2024/04/22 00:05:54;;;;;;;7.80;4.95;;;3.70;99.90;;;;;;5295120;26;20001;-79
2024/04/22 00:08:20;;;;;;;7.93;4.97;;;3.70;99.90;;;;;;5331355;26;20442;-78
2024/04/22 00:10:45;;;;;;;8.15;4.93;;;3.70;99.90;;;;;;5301914;26;20001;-80
2024/04/22 00:13:11;;;;;;;8.52;4.35;;;3.70;99.90;;;;;;5322272;26;20461;-78
2024/04/22 00:15:40;;;;;;;9.15;5.40;;;3.70;99.90;;;;;;5326967;26;20047;-73
2024/04/22 00:18:05;;;;;;;9.63;5.60;;;3.70;99.90;;;;;;5322055;26;20009;-80
2024/04/22 00:20:31;;;;;;;8.73;5.10;;;3.70;99.90;;;;;;5322080;26;20005;-78
2024/04/22 00:22:56;;;;;;;10.60;5.22;;;3.60;99.90;;;;;;5332291;26;20032;-81
2024/04/22 00:25:22;;;;;;;8.27;5.05;;;3.70;99.90;;;;;;5326989;26;19998;-81
2024/04/22 00:27:47;;;;;;;10.18;5.22;;;3.70;99.90;;;;;;5293463;26;20037;-76
2024/04/22 00:30:13;;;;;;;10.05;5.50;;;3.70;99.90;;;;;;5326650;26;20346;-78
2024/04/22 00:32:39;;;;;;;10.57;5.18;;;3.70;99.90;;;;;;5329600;26;20001;-77
2024/04/22 00:35:04;;;;;;;10.40;5.25;;;3.70;99.90;;;;;;5333705;26;20445;-80
2024/04/22 00:37:30;;;;;;;8.55;5.20;;;3.60;99.90;;;;;;5323643;26;20016;-77
2024/04/22 00:39:57;;;;;;;9.73;4.88;;;3.70;99.90;;;;;;5319913;26;20042;-78
2024/04/22 00:42:23;;;;;;;6.88;4.95;;;3.60;99.90;;;;;;5318090;26;20001;-74
2024/04/22 00:44:49;;;;;;;13.90;6.20;;;3.60;99.90;;;;;;5325658;26;20001;-76
2024/04/22 00:47:20;;;;;;;7.13;4.68;;;3.60;99.90;;;;;;5327716;26;20327;-76
2024/04/22 00:49:46;;;;;;;5.82;4.10;;;3.60;99.90;;;;;;5320523;26;20016;-77
2024/04/22 00:52:11;;;;;;;5.78;4.70;;;3.60;99.90;;;;;;5335421;26;19996;-73
2024/04/22 00:54:37;;;;;;;8.27;4.72;;;3.60;99.90;;;;;;5347568;26;20016;-72
2024/04/22 00:57:03;;;;;;;13.32;5.20;;;3.60;99.90;;;;;;5346678;26;20008;-77
2024/04/22 00:59:29;;;;;;;8.88;5.20;;;3.60;99.90;;;;;;5314060;26;20021;-78
2024/04/22 01:01:55;;;;;;;9.75;5.35;;;3.60;99.90;;;;;;5332872;26;20001;-76
2024/04/22 01:04:20;;;;;;;6.60;5.00;;;3.60;99.90;;;;;;5345779;26;19993;-74
2024/04/22 01:06:46;;;;;;;7.68;5.15;;;3.60;99.90;;;;;;5330676;26;20008;-78
2024/04/22 01:09:12;;;;;;;9.20;4.68;;;3.60;99.90;;;;;;5340247;26;19993;-78
2024/04/22 01:11:38;;;;;;;6.70;4.90;;;3.70;99.90;;;;;;5345767;26;20469;-79
2024/04/22 01:14:03;;;;;;;9.55;5.00;;;3.60;99.90;;;;;;5345286;26;20028;-80
2024/04/22 01:16:29;;;;;;;7.13;4.22;;;3.60;99.90;;;;;;5310416;26;20008;-78
2024/04/22 01:18:55;;;;;;;8.90;5.25;;;3.50;99.90;;;;;;5315661;26;20372;-77
2024/04/22 01:21:28;;;;;;;8.02;4.80;;;3.40;99.90;;;;;;5337507;26;20040;-80
2024/04/22 01:23:55;;;;;;;7.53;4.53;;;3.40;99.90;;;;;;5342777;26;20007;-80
2024/04/22 01:26:24;;;;;;;6.75;4.60;;;3.30;99.90;;;;;;5336236;26;20008;-80
2024/04/22 01:28:50;;;;;;;7.28;4.38;;;3.30;99.90;;;;;;5344152;26;19997;-80
2024/04/22 01:31:16;;;;;;;6.40;4.40;;;3.20;99.90;;;;;;5314069;26;20456;-78
2024/04/22 01:33:41;;;;;;;6.85;4.80;;;3.20;99.90;;;;;;5304866;26;20405;-80
2024/04/22 01:36:07;;;;;;;7.25;4.43;;;3.20;99.90;;;;;;5338793;26;20012;-80
2024/04/22 01:38:33;;;;;;;6.80;4.63;;;3.30;99.90;;;;;;5342615;26;20016;-81
2024/04/22 01:40:59;;;;;;;6.80;4.22;;;3.20;99.90;;;;;;5338112;26;20001;-79
2024/04/22 01:43:24;;;;;;;5.03;4.00;;;3.10;99.90;;;;;;5343353;26;20001;-80
2024/04/22 01:45:50;;;;;;;5.95;4.65;;;3.10;99.90;;;;;;5343687;26;20011;-76
2024/04/22 01:48:16;;;;;;;5.68;3.78;;;3.00;99.90;;;;;;5323281;26;20385;-79
2024/04/22 01:50:41;;;;;;;8.02;4.10;;;3.00;99.90;;;;;;5296161;26;20001;-77
2024/04/22 01:53:07;;;;;;;7.90;4.95;;;3.00;99.90;;;;;;5325012;26;20001;-80
2024/04/22 01:55:32;;;;;;;7.15;3.75;;;3.00;99.90;;;;;;5343342;26;20430;-78
2024/04/22 01:57:58;;;;;;;6.60;4.60;;;2.90;99.90;;;;;;5316650;26;20419;-79
2024/04/22 02:00:23;;;;;;;8.18;4.15;;;3.00;99.90;;;;;;5315225;26;20012;-78
2024/04/22 02:02:49;;;;;;;7.72;4.28;;;3.00;99.90;;;;;;5342623;26;20449;-78
2024/04/22 02:05:15;;;;;;;9.55;4.55;;;3.10;99.90;;;;;;5329028;26;20014;-78
2024/04/22 02:07:40;;;;;;;6.15;4.68;;;3.10;99.90;;;;;;5323001;26;19996;-78
2024/04/22 02:10:08;;;;;;;9.40;4.30;;;3.20;99.90;;;;;;5342947;26;20000;-79
2024/04/22 02:12:33;;;;;;;6.63;4.55;;;3.10;99.90;;;;;;5343051;26;20007;-78
2024/04/22 02:14:59;;;;;;;7.30;4.13;;;3.10;99.90;;;;;;5342623;26;19997;-83
2024/04/22 02:17:24;;;;;;;5.93;4.00;;;3.10;99.90;;;;;;5334251;26;20005;-80
2024/04/22 02:19:50;;;;;;;5.38;4.18;;;3.10;99.90;;;;;;5316319;26;20012;-78
2024/04/22 02:22:15;;;;;;;7.13;4.38;;;3.10;99.90;;;;;;5316049;26;20006;-79
2024/04/22 02:24:41;;;;;;;6.22;4.10;;;3.10;99.90;;;;;;5336668;26;20341;-78
2024/04/22 02:27:07;;;;;;;5.53;4.20;;;3.10;99.90;;;;;;5342995;26;20016;-79
2024/04/22 02:29:32;;;;;;;8.88;3.80;;;3.10;99.90;;;;;;5329948;26;20024;-80
2024/04/22 02:31:58;;;;;;;8.73;4.20;;;3.10;99.90;;;;;;5321409;26;19997;-80
2024/04/22 02:34:23;;;;;;;6.65;4.57;;;3.10;99.90;;;;;;5342787;26;20446;-80
2024/04/22 02:36:50;;;;;;;6.00;3.50;;;3.20;99.90;;;;;;5328815;26;20406;-79
2024/04/22 02:39:16;;;;;;;5.80;3.75;;;3.10;99.90;;;;;;5291792;26;20430;-78
2024/04/22 02:41:41;;;;;;;9.02;4.28;;;3.10;99.90;;;;;;5330428;26;20012;-75
2024/04/22 02:44:07;;;;;;;7.95;3.58;;;3.10;99.90;;;;;;5341300;26;20319;-78
2024/04/22 02:46:33;;;;;;;8.63;4.07;;;3.30;99.90;;;;;;5314096;26;20012;-76
2024/04/22 02:48:59;;;;;;;4.75;3.53;;;3.40;99.90;;;;;;5308841;26;20012;-78
2024/04/22 02:51:24;;;;;;;6.25;3.95;;;3.30;99.90;;;;;;5344309;26;20001;-77
2024/04/22 02:53:50;;;;;;;6.00;3.90;;;3.20;99.90;;;;;;5345083;26;20001;-78
2024/04/22 02:56:15;;;;;;;5.40;3.75;;;3.20;99.90;;;;;;5344798;26;20008;-78
2024/04/22 02:58:44;;;;;;;5.53;3.45;;;3.20;99.90;;;;;;5333453;26;20006;-78
2024/04/22 03:01:09;;;;;;;5.53;3.70;;;3.30;99.90;;;;;;5329219;26;20001;-80
2024/04/22 03:03:35;;;;;;;4.80;3.60;;;3.30;99.90;;;;;;5312464;26;20052;-72
2024/04/22 03:06:01;;;;;;;5.78;4.05;;;3.30;99.90;;;;;;5333194;26;20008;-79
2024/04/22 03:08:27;;;;;;;5.75;3.72;;;3.30;99.90;;;;;;5334904;26;19997;-80
2024/04/22 03:10:57;;;;;;;5.70;3.67;;;3.20;99.90;;;;;;5345820;26;20058;-81
2024/04/22 03:13:23;;;;;;;8.05;3.78;;;3.20;99.90;;;;;;5336627;26;19997;-80
2024/04/22 03:15:48;;;;;;;9.48;3.80;;;3.20;99.90;;;;;;5345394;26;20323;-80
2024/04/22 03:18:14;;;;;;;6.50;3.67;;;3.20;99.90;;;;;;5342071;26;20079;-80
2024/04/22 03:20:39;;;;;;;4.85;3.70;;;3.10;99.90;;;;;;5302677;26;20002;-79
2024/04/22 03:23:05;;;;;;;5.78;3.95;;;3.10;99.90;;;;;;5327677;26;20082;-78
2024/04/22 03:25:30;;;;;;;10.13;3.60;;;3.10;99.90;;;;;;5345529;26;20005;-78
2024/04/22 03:27:56;;;;;;;12.23;4.10;;;3.10;99.90;;;;;;5342540;26;20011;-78
2024/04/22 03:30:22;;;;;;;5.82;4.05;;;3.10;99.90;;;;;;5339076;26;20012;-80
2024/04/22 03:32:47;;;;;;;6.00;3.55;;;3.10;99.90;;;;;;5337533;26;20020;-77
2024/04/22 03:35:13;;;;;;;8.45;4.05;;;3.00;99.90;;;;;;5346254;26;20012;-78
2024/04/22 03:37:38;;;;;;;5.78;4.00;;;2.90;99.90;;;;;;5344806;26;20005;-78
2024/04/22 03:40:05;;;;;;;6.53;4.65;;;2.80;99.90;;;;;;5308952;26;20008;-86
2024/04/22 03:42:30;;;;;;;6.57;4.20;;;2.90;99.90;;;;;;5327694;26;20120;-81
2024/04/22 03:44:56;;;;;;;6.10;4.00;;;2.90;99.90;;;;;;5344702;26;20200;-78
2024/04/22 03:50:06;;;;;;;7.07;3.95;;;2.90;99.90;;;;;;5345307;26;20092;-78
2024/04/22 03:52:32;;;;;;;7.75;3.90;;;2.80;99.90;;;;;;5345611;26;20445;-78
2024/04/22 03:54:58;;;;;;;8.20;4.22;;;2.80;99.90;;;;;;5344931;26;20210;-78
2024/04/22 03:57:23;;;;;;;7.45;4.30;;;2.70;99.90;;;;;;5313051;26;20443;-76
2024/04/22 03:59:50;;;;;;;7.15;4.32;;;2.60;99.90;;;;;;5322522;26;20098;-75
2024/04/22 04:02:16;;;;;;;6.63;4.80;;;2.50;99.90;;;;;;5308053;26;20008;-77
2024/04/22 04:04:41;;;;;;;6.13;4.53;;;2.50;99.90;;;;;;5330403;26;20009;-78
2024/04/22 04:07:07;;;;;;;8.50;4.22;;;2.50;99.90;;;;;;5344476;26;20004;-75
2024/04/22 04:09:34;;;;;;;5.95;3.50;;;2.40;99.90;;;;;;5345798;26;20019;-78
2024/04/22 04:12:00;;;;;;;6.45;3.95;;;2.30;99.90;;;;;;5344587;26;20045;-79
2024/04/22 04:14:25;;;;;;;7.13;3.90;;;2.30;99.90;;;;;;5316786;26;20016;-78
2024/04/22 04:16:51;;;;;;;7.00;4.05;;;2.40;99.90;;;;;;5341112;26;20315;-76
2024/04/22 04:19:16;;;;;;;5.55;3.58;;;2.30;99.90;;;;;;5326532;26;20049;-77
2024/04/22 04:21:42;;;;;;;8.35;4.22;;;2.10;99.90;;;;;;5341639;26;20001;-72
2024/04/22 04:24:08;;;;;;;7.07;4.13;;;2.00;99.90;;;;;;5344778;26;19997;-77
2024/04/22 04:26:33;;;;;;;7.00;4.53;;;2.00;99.90;;;;;;5345288;26;20005;-77
2024/04/22 04:28:59;;;;;;;6.30;3.60;;;2.00;99.90;;;;;;5318976;26;20023;-75
2024/04/22 04:31:24;;;;;;;6.03;4.15;;;2.10;99.90;;;;;;5300904;26;20009;-77
2024/04/22 04:33:50;;;;;;;10.35;4.72;;;2.00;99.90;;;;;;5292588;26;20334;-76
2024/04/22 04:36:16;;;;;;;8.40;4.03;;;2.00;99.90;;;;;;5317311;26;20001;-79
2024/04/22 04:38:41;;;;;;;7.65;3.75;;;2.00;99.90;;;;;;5314326;26;20004;-77
2024/04/22 04:41:07;;;;;;;5.43;3.72;;;2.00;99.90;;;;;;5335389;26;20005;-79
2024/04/22 04:43:33;;;;;;;9.38;4.20;;;2.00;99.90;;;;;;5309939;26;19994;-76
2024/04/22 04:45:59;;;;;;;5.82;3.83;;;1.90;99.90;;;;;;5332603;26;20012;-80
2024/04/22 04:48:25;;;;;;;7.82;4.18;;;1.90;99.90;;;;;;5316279;26;20001;-79
2024/04/22 04:50:51;;;;;;;6.57;3.95;;;1.80;99.90;;;;;;5327895;26;19997;-76
2024/04/22 04:53:17;;;;;;;8.05;4.18;;;1.80;99.90;;;;;;5321707;26;20439;-79
2024/04/22 04:55:47;;;;;;;6.57;4.07;;;1.70;99.90;;;;;;5333787;26;20001;-78
2024/04/22 04:58:13;;;;;;;6.18;4.20;;;1.70;99.90;;;;;;5303530;26;20006;-79
2024/04/22 05:00:39;;;;;;;6.85;4.15;;;1.70;99.90;;;;;;5317129;26;20067;-77
2024/04/22 05:03:05;;;;;;;4.88;3.92;;;1.80;99.90;;;;;;5327746;26;20013;-76
2024/04/22 05:05:30;;;;;;;7.47;3.97;;;1.80;99.90;;;;;;5310569;26;20512;-78
2024/04/22 05:07:56;;;;;;;10.38;4.45;;;1.80;99.90;;;;;;5303059;26;19994;-73
2024/04/22 05:10:22;;;;;;;6.55;3.67;;;1.80;99.90;;;;;;5341599;26;20020;-77
2024/04/22 05:12:48;;;;;;;5.28;3.47;;;1.80;99.90;;;;;;5303720;26;20438;-74
2024/04/22 05:15:14;;;;;;;5.57;4.10;;;1.80;99.90;;;;;;5321931;26;20041;-77
2024/04/22 05:17:40;;;;;;;6.72;4.03;;;1.90;99.90;;;;;;5338249;26;20016;-77
2024/04/22 05:20:06;;;;;;;6.38;3.75;;;1.90;99.90;;;;;;5310575;26;20002;-77
2024/04/22 05:22:31;;;;;;;5.93;4.15;;;2.00;99.90;;;;;;5298282;26;20074;-76
2024/04/22 05:24:57;;;;;;;6.28;3.95;;;2.10;99.90;;;;;;5317692;26;20083;-74
2024/04/22 05:27:22;;;;;;;6.03;3.95;;;2.10;99.90;;;;;;5341674;26;20074;-74
2024/04/22 05:29:49;;;;;;;6.07;3.70;;;2.10;99.90;;;;;;5298116;26;20005;-78
2024/04/22 05:32:15;;;;;;;7.07;4.13;;;2.10;99.90;;;;;;5306272;26;20484;-85
2024/04/22 05:37:25;;;;;;;6.63;3.60;;;2.30;99.90;;;;;;5325978;26;20464;-78
2024/04/22 05:39:50;;;;;;;5.22;3.22;;;2.40;99.90;;;;;;5288506;26;20000;-75
2024/04/22 05:42:16;;;;;;;6.28;3.47;;;2.50;99.90;;;;;;5325934;26;20452;-73
2024/04/22 05:44:42;;;;;;;6.13;3.28;;;2.70;99.90;;;;;;5303812;26;20002;-76
2024/04/22 05:47:07;;;;;;;5.05;3.67;;;2.80;99.90;;;;;;5328877;26;20050;-73
2024/04/22 05:49:33;;;;;;;6.63;3.22;;;2.80;99.90;;;;;;5311553;26;20016;-74
2024/04/22 05:51:58;;;;;;;6.10;3.42;;;3.00;99.90;;;;;;5341193;26;20005;-76
2024/04/22 05:54:24;;;;;;;7.22;3.65;;;3.00;99.90;;;;;;5300588;26;20011;-75
2024/04/22 05:56:50;;;;;;;7.03;3.70;;;3.00;99.90;;;;;;5316073;26;20006;-73
2024/04/22 05:59:16;;;;;;;10.85;4.18;;;2.90;99.90;;;;;;5307519;27;20053;-74
2024/04/22 06:01:42;;;;;;;7.03;3.60;;;2.90;99.90;;;;;;5309546;26;20443;-73
2024/04/22 06:04:08;;;;;;;7.03;3.88;;;3.00;99.90;;;;;;5326594;26;20005;-73
2024/04/22 06:06:38;;;;;;;4.50;3.35;;;3.00;99.90;;;;;;5343851;26;20066;-72
2024/04/22 06:09:04;;;;;;;5.72;3.65;;;3.00;99.90;;;;;;5303234;26;20049;-72
2024/04/22 06:11:30;;;;;;;9.02;3.92;;;3.10;99.90;;;;;;5319398;26;20001;-74
2024/04/22 06:13:56;;;;;;;9.23;3.75;;;3.10;99.90;;;;;;5331891;26;20089;-73
2024/04/22 06:16:22;;;;;;;7.93;3.30;;;3.00;99.90;;;;;;5337473;26;20008;-74
2024/04/22 06:18:47;;;;;;;5.53;3.40;;;3.10;99.90;;;;;;5312601;26;20012;-72
2024/04/22 06:21:13;;;;;;;5.10;3.40;;;3.10;99.90;;;;;;5325805;26;20016;-74
2024/04/22 06:23:39;;;;;;;10.95;4.53;;;3.20;99.90;;;;;;5340810;26;19993;-73
2024/04/22 06:26:05;;;;;;;4.18;3.00;;;3.20;99.90;;;;;;5324189;26;20017;-74
2024/04/22 06:28:32;;;;;;;7.57;3.58;;;3.40;99.90;;;;;;5316445;26;20002;-72
2024/04/22 06:30:58;;;;;;;6.63;3.90;;;3.40;99.90;;;;;;5330758;26;20009;-72
2024/04/22 06:33:26;;;;;;;4.30;3.38;;;3.50;99.90;;;;;;5345220;26;20013;-72
2024/04/22 06:35:51;;;;;;;4.97;2.97;;;3.50;99.90;;;;;;5327360;26;20005;-73
2024/04/22 06:38:17;;;;;;;6.15;3.28;;;3.50;99.90;;;;;;5318001;26;20001;-74
2024/04/22 06:40:43;;;;;;;8.13;3.28;;;3.50;99.90;;;;;;5314920;26;20439;-73
2024/04/22 06:43:10;;;;;;;6.25;2.97;;;3.50;99.90;;;;;;5314181;26;20038;-73
2024/04/22 06:45:37;;;;;;;4.57;3.33;;;3.60;99.90;;;;;;5316662;26;20012;-74
2024/04/22 06:48:03;;;;;;;8.02;3.30;;;3.70;99.90;;;;;;5335064;26;20017;-75
2024/04/22 06:50:29;;;;;;;4.75;3.35;;;3.70;99.90;;;;;;5340951;26;19997;-73
2024/04/22 06:52:54;;;;;;;6.15;3.15;;;3.90;99.90;;;;;;5280844;27;20001;-73
2024/04/22 06:55:21;;;;;;;5.25;2.90;;;3.90;99.90;;;;;;5284160;27;20399;-73
2024/04/22 06:57:46;;;;;;;5.18;3.42;;;4.00;99.90;;;;;;5307615;26;20001;-74
2024/04/22 07:00:12;;;;;;;5.90;3.33;;;4.10;99.90;;;;;;5322497;26;20381;-73
2024/04/22 07:02:38;;;;;;;4.97;3.08;;;4.10;99.90;;;;;;5315094;26;20068;-72
2024/04/22 07:05:03;;;;;;;5.32;3.20;;;4.30;99.90;;;;;;5332652;26;20370;-73
2024/04/22 07:07:30;;;;;;;4.70;3.08;;;4.40;99.90;;;;;;5329089;26;20007;-73
2024/04/22 07:09:56;;;;;;;4.30;3.13;;;4.50;99.90;;;;;;5318958;26;20797;-73
2024/04/22 07:12:22;;;;;;;7.63;3.00;;;4.60;99.90;;;;;;5332769;26;20005;-73
2024/04/22 07:14:47;;;;;;;3.65;2.72;;;4.80;99.90;;;;;;5308862;26;20033;-72
2024/04/22 07:17:13;;;;;;;3.70;2.90;;;4.80;99.90;;;;;;5296891;26;20379;-73
2024/04/22 07:19:40;;;;;;;6.10;3.22;;;4.90;99.90;;;;;;5303207;27;20009;-73
2024/04/22 07:22:05;;;;;;;4.68;2.95;;;5.00;99.90;;;;;;5321637;26;20009;-73
2024/04/22 07:24:31;;;;;;;7.75;3.75;;;5.10;99.90;;;;;;5332130;26;20346;-74
2024/04/22 07:26:56;;;;;;;8.10;3.65;;;5.20;99.90;;;;;;5306532;26;20677;-73
2024/04/22 07:29:22;;;;;;;6.63;2.90;;;5.30;99.90;;;;;;5316133;26;20038;-72
2024/04/22 07:31:48;;;;;;;4.53;2.88;;;5.40;99.90;;;;;;5320568;26;20076;-73
2024/04/22 07:34:14;;;;;;;5.38;2.75;;;5.60;99.90;;;;;;5316697;26;20001;-72
2024/04/22 07:36:45;;;;;;;6.13;2.83;;;5.60;99.90;;;;;;5314097;26;20009;-73
2024/04/22 07:39:14;;;;;;;3.25;2.47;;;5.60;99.90;;;;;;5317028;26;20335;-73
2024/04/22 07:41:40;;;;;;;5.80;2.53;;;5.60;99.90;;;;;;5343424;26;20011;-72
2024/04/22 07:44:05;;;;;;;7.95;3.50;;;5.60;99.90;;;;;;5320966;26;20001;-72
2024/04/22 07:46:32;;;;;;;7.68;3.35;;;5.40;99.90;;;;;;5315112;26;20002;-72
2024/04/22 07:48:58;;;;;;;5.15;2.90;;;5.30;99.90;;;;;;5334708;26;20008;-73
2024/04/22 07:51:24;;;;;;;5.70;3.22;;;5.10;99.90;;;;;;5331757;26;20016;-73
2024/04/22 07:53:50;;;;;;;8.85;2.58;;;5.00;99.90;;;;;;5309787;27;19998;-73
2024/04/22 07:56:17;;;;;;;7.55;3.10;;;5.00;99.90;;;;;;5329015;26;20012;-73
2024/04/22 07:58:43;;;;;;;6.03;3.10;;;5.00;99.90;;;;;;5333327;26;20005;-71
2024/04/22 08:01:09;;;;;;;9.30;3.22;;;5.00;99.90;;;;;;5312892;26;20006;-73
2024/04/22 08:03:35;;;;;;;5.40;2.83;;;5.00;99.90;;;;;;5303235;26;19998;-73
2024/04/22 08:06:04;;;;;;;8.15;2.78;;;5.10;99.90;;;;;;5331720;26;20338;-73
2024/04/22 08:08:32;;;;;;;9.45;3.20;;;5.20;99.90;;;;;;5342641;26;20536;-73
2024/04/22 08:11:01;;;;;;;6.93;3.20;;;5.40;99.90;;;;;;5319225;26;20009;-73
2024/04/22 08:13:26;;;;;;;5.45;2.78;;;5.50;99.90;;;;;;5322294;26;21594;-73
2024/04/22 08:15:52;;;;;;;4.22;2.17;;;5.70;99.90;;;;;;5343082;26;20079;-73
2024/04/22 08:18:18;;;;;;;3.53;2.42;;;5.80;99.90;;;;;;5333963;26;20438;-74
2024/04/22 08:20:43;;;;;;;4.10;2.22;;;5.90;99.90;;;;;;5307587;26;21360;-73
2024/04/22 08:23:09;;;;;;;6.53;2.38;;;5.80;99.90;;;;;;5312799;26;20012;-73
2024/04/22 08:25:34;;;;;;;2.88;2.20;;;5.70;99.90;;;;;;5322941;26;20468;-73
2024/04/22 08:28:00;;;;;;;4.63;2.03;;;5.60;99.90;;;;;;5317469;26;20013;-73
2024/04/22 08:30:27;;;;;;;4.32;2.00;;;5.40;99.90;;;;;;5320850;26;20006;-73
2024/04/22 08:32:53;;;;;;;6.53;2.38;;;5.50;99.90;;;;;;5313874;26;20459;-73
2024/04/22 08:35:18;;;;;;;4.05;2.00;;;5.50;99.90;;;;;;5320501;26;20075;-73
2024/04/22 08:37:44;;;;;;;2.92;1.73;;;5.60;99.90;;;;;;5318662;26;20088;-73
2024/04/22 08:40:10;;;;;;;3.75;2.10;;;5.70;99.90;;;;;;5318518;26;20016;-72
2024/04/22 08:42:38;;;;;;;3.20;2.60;;;5.80;99.90;;;;;;5314383;26;20008;-73
2024/04/22 08:45:05;;;;;;;2.65;2.00;;;5.90;99.90;;;;;;5309380;26;20013;-74
2024/04/22 08:47:31;;;;;;;6.30;2.20;;;6.10;99.90;;;;;;5317137;26;20000;-73
2024/04/22 08:49:58;;;;;;;3.40;2.17;;;6.20;99.90;;;;;;5323938;26;20247;-71
2024/04/22 08:52:24;;;;;;;3.95;2.63;;;6.30;99.90;;;;;;5307278;26;20006;-73
2024/04/22 08:54:50;;;;;;;3.00;1.67;;;6.40;99.90;;;;;;5326842;26;20016;-73
2024/04/22 08:57:16;;;;;;;4.20;1.65;;;6.60;99.90;;;;;;5331655;26;20172;-74
2024/04/22 08:59:41;;;;;;;4.60;3.17;;;6.70;99.90;;;;;;5314249;26;20021;-73
2024/04/22 09:02:07;;;;;;;9.60;2.55;;;6.90;99.90;;;;;;5321213;26;20009;-73
2024/04/22 09:04:33;;;;;;;4.05;1.98;;;7.10;99.90;;;;;;5325850;26;20004;-72
2024/04/22 09:07:05;;;;;;;2.78;2.00;;;7.30;99.60;;;;;;5328746;26;20479;-73
2024/04/22 09:09:31;;;;;;;5.55;2.28;;;7.40;99.30;;;;;;5315857;26;19997;-74
2024/04/22 09:11:57;;;;;;;2.08;1.58;;;7.40;98.70;;;;;;5349150;26;20413;-73
2024/04/22 09:14:25;;;;;;;5.82;1.90;;;7.40;99.00;;;;;;5340965;26;19998;-73
2024/04/22 09:16:50;;;;;;;2.95;2.20;;;7.40;99.00;;;;;;5316844;26;20012;-72
2024/04/22 09:19:22;;;;;;;5.38;2.15;;;7.70;99.10;;;;;;5319547;26;20002;-72
2024/04/22 09:21:48;;;;;;;2.60;1.90;;;7.70;98.40;;;;;;5332011;26;20067;-73
2024/04/22 09:24:14;;;;;;;3.10;1.80;;;;;;;;;;5313224;26;20026;-72
2024/04/22 09:26:41;;;;;;;4.28;2.45;;;;;;;;;;5311240;26;20105;-73
2024/04/22 09:29:08;;;;;;;4.40;2.60;;;;;;;;;;5323417;26;20006;-73
2024/04/22 09:31:40;;;;;;;2.50;1.80;;;;;;;;;;5326237;26;20338;-73
2024/04/22 09:34:06;;;;;;;3.53;2.47;;;;;;;;;;5342625;26;20012;-72
2024/04/22 09:36:33;;;;;;;3.25;1.85;;;;;;;;;;5318921;26;20083;-74
2024/04/22 09:38:59;;;;;;;3.15;1.98;;;;;;;;;;5325663;26;20025;-73
2024/04/22 09:41:26;;;;;;;2.50;2.10;;;;;;;;;;5341046;26;20044;-73
2024/04/22 09:43:53;;;;;;;5.03;2.78;;;;;;;;;;5315462;26;20473;-73
2024/04/22 09:46:19;;;;;;;3.85;2.25;;;;;;;;;;5335853;26;20004;-72
2024/04/22 09:48:45;;;;;;;3.83;2.00;;;;;;;;;;5335855;26;20041;-73
2024/04/22 09:51:12;;;;;;;4.00;2.00;;;;;;;;;;5336491;26;20002;-71
2024/04/22 09:53:39;;;;;;;2.75;2.13;;;;;;;;;;5322533;26;20006;-70
2024/04/22 09:56:07;;;;;;;5.53;2.20;;;;;;;;;;5338762;26;20001;-73
2024/04/22 09:58:34;;;;;;;3.35;2.05;;;;;;;;;;5315742;26;20489;-73
2024/04/22 10:01:00;;;;;;;5.03;2.28;;;;;;;;;;5311193;26;20415;-72
2024/04/22 10:03:28;;;;;;;5.93;2.00;;;;;;;;;;5326795;26;20009;-73
2024/04/22 10:05:58;;;;;;;5.32;2.53;;;;;;;;;;5337304;26;20028;-73
2024/04/22 10:08:24;;;;;;;;;;;;;;;;;;5342782;26;20012;-73
2024/04/22 10:10:50;;;;;;;3.33;2.22;;;;;;;;;;5324701;26;20394;-74
2024/04/22 10:13:16;;;;;;;3.55;1.83;;;;;;;;;;5323029;26;19997;-73
2024/04/22 10:15:42;;;;;;;3.10;2.10;;;;;;;;;;5344035;26;19997;-74
2024/04/22 10:18:14;;;;;;;4.30;2.20;;;;;;;;;;5327446;26;20017;-75
2024/04/22 10:20:44;;;;;;;3.35;1.85;;;;;;;;;;5326040;26;20037;-72
2024/04/22 10:23:12;;;;;;;3.08;1.90;;;;;;;;;;5341339;26;20011;-73
2024/04/22 10:25:38;;;;;;;2.83;1.80;;;8.60;94.60;;;;;;5332410;26;20011;-71
2024/04/22 10:28:04;;;;;;;6.38;2.15;;;8.50;94.80;;;;;;5330877;26;20441;-74
2024/04/22 10:30:37;;;;;;;2.30;1.75;;;9.10;94.10;;;;;;5338992;26;20450;-72
2024/04/22 10:33:04;;;;;;;3.80;1.67;;;9.30;93.40;;;;;;5337712;26;20017;-74
2024/04/22 10:35:30;;;;;;;2.00;1.70;;;9.50;93.70;;;;;;5321334;26;20002;-72
2024/04/22 10:37:56;;;;;;;2.22;1.73;;;9.70;92.90;;;;;;5334332;26;20001;-74
2024/04/22 10:40:22;;;;;;;3.45;1.45;;;10.10;92.70;;;;;;5340992;26;19997;-73
2024/04/22 10:42:48;;;;;;;3.03;1.42;;;10.60;91.80;;;;;;5332922;26;20001;-73
2024/04/22 10:45:14;;;;;;;4.95;1.90;;;11.00;90.50;;;;;;5323884;26;19997;-73
2024/04/22 10:47:40;;;;;;;1.88;1.40;;;;;;;;;;5328661;26;20001;-73
2024/04/22 10:50:15;;;;;;;1.48;1.25;;;;;;;;;;5303175;27;20008;-73
2024/04/22 10:52:41;;;;;;;3.55;1.70;;;;;;;;;;5314436;26;20021;-74
2024/04/22 10:55:07;;;;;;;3.35;1.58;;;;;;;;;;5303476;26;20016;-73
2024/04/22 10:57:37;;;;;;;3.22;1.40;;;;;;;;;;5295034;26;20006;-73
2024/04/22 11:00:04;;;;;;;1.40;1.13;;;12.40;81.20;;;;;;5320532;26;19997;-74
2024/04/22 11:02:32;;;;;;;1.83;1.55;;;12.50;82.00;;;;;;5329217;26;20004;-72
2024/04/22 11:04:59;;;;;;;2.55;1.80;;;12.40;82.60;;;;;;5329306;26;20013;-73
2024/04/22 11:07:28;;;;;;;2.05;1.60;;;11.50;82.30;;;;;;5298224;27;20016;-74
2024/04/22 11:09:55;;;;;;;2.67;1.73;;;10.80;84.20;;;;;;5322904;26;20001;-73
2024/04/22 11:12:22;;;;;;;3.67;1.95;;;10.40;86.00;;;;;;5339730;26;20019;-73
2024/04/22 11:14:48;;;;;;;3.10;1.67;;;10.20;85.20;;;;;;5333253;26;20017;-73
2024/04/22 11:17:21;;;;;;;2.47;2.20;;;10.30;86.80;;;;;;5303829;26;20430;-74
2024/04/22 11:19:46;;;;;;;2.72;1.40;;;10.50;86.50;;;;;;5323194;26;20008;-73
2024/04/22 11:22:12;;;;;;;2.67;1.63;;;10.60;85.40;;;;;;5343617;26;20005;-73
2024/04/22 11:24:38;;;;;;;11.10;2.00;;;10.50;84.20;;;;;;5321615;26;20897;-71
2024/04/22 11:27:04;;;;;;;2.47;1.38;;;10.30;84.20;;;;;;5325582;26;20042;-73
2024/04/22 11:29:30;;;;;;;2.50;1.30;;;10.40;83.80;;;;;;5341234;26;20037;-73
2024/04/22 11:31:56;;;;;;;4.18;1.90;;;10.70;84.40;;;;;;5322854;26;20465;-73
2024/04/22 11:34:21;;;;;;;4.43;1.80;;;10.90;82.00;;;;;;5329374;26;20001;-72
2024/04/22 11:36:58;;;;;;;1.70;1.30;;;10.70;81.30;;;;;;5328048;26;20024;-73
2024/04/22 11:39:28;;;;;;;3.30;1.55;;;10.10;82.10;;;;;;5331588;26;20006;-73
2024/04/22 11:41:53;;;;;;;1.77;1.50;;;10.10;84.20;;;;;;5318539;26;20001;-73
2024/04/22 11:44:19;;;;;;;2.35;1.60;;;10.20;84.50;;;;;;5330318;26;20016;-72
2024/04/22 11:46:46;;;;;;;2.22;1.65;;;10.30;84.50;;;;;;5329404;26;20002;-73
2024/04/22 11:49:12;;;;;;;3.20;1.58;;;10.50;83.60;;;;;;5334155;26;20458;-73
2024/04/22 11:51:37;;;;;;;3.03;2.00;;;10.50;83.50;;;;;;5303081;26;20076;-71
2024/04/22 11:54:04;;;;;;;2.00;1.50;;;10.70;85.70;;;;;;5334260;26;20000;-74
2024/04/22 11:56:35;;;;;;;2.25;1.52;;;10.90;83.70;;;;;;5319790;26;20509;-74
2024/04/22 11:59:01;;;;;;;3.28;1.52;;;11.20;84.40;;;;;;5320881;26;20036;-74
2024/04/22 12:01:27;;;;;;;4.18;1.80;;;11.40;82.50;;;;;;5330671;26;20017;-72
2024/04/22 12:03:52;;;;;;;2.92;1.73;;;11.10;83.50;;;;;;5324755;26;19997;-74
2024/04/22 12:06:18;;;;;;;3.58;1.80;;;10.60;84.20;;;;;;5329722;26;20005;-72
2024/04/22 12:08:44;;;;;;;2.60;1.77;;;10.10;85.20;;;;;;5316869;26;20010;-71
2024/04/22 12:11:10;;;;;;;3.28;1.52;;;9.80;84.80;;;;;;5317955;26;20015;-72
2024/04/22 12:13:35;;;;;;;5.25;1.40;;;9.70;85.30;;;;;;5328340;26;19996;-72
2024/04/22 12:16:01;;;;;;;1.90;1.27;;;9.70;88.00;;;;;;5335271;26;20009;-73
2024/04/22 12:18:26;;;;;;;1.48;1.38;;;9.80;83.50;;;;;;5312256;26;20017;-73
2024/04/22 12:20:52;;;;;;;1.70;1.42;;;9.90;82.30;;;;;;5318539;26;20002;-73
2024/04/22 12:23:17;;;;;;;2.08;1.10;;;9.90;82.30;;;;;;5332277;26;20008;-73
2024/04/22 12:25:43;;;;;;;1.98;1.40;;;9.90;84.30;;;;;;5337882;26;20008;-72
2024/04/22 12:28:09;;;;;;;2.25;1.40;;;9.80;82.80;;;;;;5324971;26;20001;-72
2024/04/22 12:30:35;;;;;;;2.00;1.67;;;9.80;83.00;;;;;;5327720;26;20016;-73
2024/04/22 12:33:01;;;;;;;1.73;1.30;;;9.80;82.20;;;;;;5334250;26;20438;-75
2024/04/22 12:35:26;;;;;;;4.32;2.03;;;9.60;83.00;;;;;;5330575;26;20014;-74
2024/04/22 12:37:52;;;;;;;2.03;1.52;;;9.90;82.90;;;;;;5322348;26;20016;-73
2024/04/22 12:40:18;;;;;;;4.90;1.92;;;10.60;82.10;;;;;;5334760;26;20511;-72
2024/04/22 12:42:43;;;;;;;3.03;1.48;;;11.50;81.70;;;;;;5314822;26;20021;-70
2024/04/22 12:45:10;;;;;;;4.50;1.80;;;11.40;81.70;;;;;;5316190;26;20076;-72
2024/04/22 12:53:03;;;;;;;2.00;1.80;;;11.40;84.30;;;;;;5313719;26;20012;-72
2024/04/22 12:55:29;;;;;;;2.17;1.80;;;11.00;84.90;;;;;;5321539;26;20334;-73
2024/04/22 12:57:57;;;;;;;2.65;1.58;;;10.90;83.10;;;;;;5320253;26;20001;-72
2024/04/22 13:00:23;;;;;;;1.58;1.35;;;10.40;82.50;;;;;;5335636;26;20442;-72
2024/04/22 13:02:49;;;;;;;2.42;1.48;;;10.00;81.60;;;;;;5297585;26;20366;-72
2024/04/22 13:05:14;;;;;;;2.55;1.48;;;10.20;83.60;;;;;;5320448;26;19998;-73
2024/04/22 13:07:40;;;;;;;1.52;1.30;;;10.20;81.10;;;;;;5328144;26;20004;-72
2024/04/22 13:10:06;;;;;;;3.50;1.92;;;10.20;82.10;;;;;;5322791;26;20323;-73